createdAt,value
2018-12-12T00:00:16.981Z,22.67
2018-12-12T00:02:45.191Z,25.35
2018-12-12T00:05:13.342Z,18.77
2018-12-12T00:07:41.456Z,23.23
2018-12-12T00:10:11.638Z,21.30
2018-12-12T00:12:39.720Z,26.40
2018-12-12T00:15:07.966Z,21.13
2018-12-12T00:17:36.358Z,19.83
2018-12-12T00:20:06.034Z,24.87
2018-12-12T00:22:34.168Z,21.07
2018-12-12T00:25:02.360Z,26.03
2018-12-12T00:27:30.416Z,22.63
2018-12-12T00:29:58.470Z,21.00
2018-12-12T00:32:26.531Z,30.47
2018-12-12T00:34:54.633Z,27.10
2018-12-12T00:37:22.706Z,21.83
2018-12-12T00:39:50.759Z,22.50
2018-12-12T00:42:18.824Z,21.50
2018-12-12T00:44:46.957Z,26.27
2018-12-12T00:47:15.151Z,19.17
2018-12-12T00:49:43.208Z,23.43
2018-12-12T00:52:11.870Z,23.87
2018-12-12T00:54:40.258Z,22.13
2018-12-12T00:57:08.332Z,21.27
2018-12-12T00:59:36.472Z,29.37
2018-12-12T01:02:04.734Z,24.03
2018-12-12T01:04:32.800Z,24.03
2018-12-12T01:07:00.946Z,24.30
2018-12-12T01:09:29.002Z,21.87
2018-12-12T01:12:02.893Z,19.32
2018-12-12T01:14:31.048Z,25.43
2018-12-12T01:16:59.138Z,21.65
2018-12-12T01:19:27.558Z,24.50
2018-12-12T01:21:55.690Z,18.37
2018-12-12T01:24:23.813Z,25.77
2018-12-12T01:26:51.899Z,24.90
2018-12-12T01:29:19.977Z,25.53
2018-12-12T01:31:48.070Z,22.27
2018-12-12T01:34:16.233Z,20.43
2018-12-12T01:36:44.457Z,26.47
2018-12-12T01:39:12.546Z,26.53
2018-12-12T01:41:41.416Z,24.90
2018-12-12T01:44:09.472Z,24.27
2018-12-12T01:46:37.544Z,19.90
2018-12-12T01:49:05.653Z,22.90
2018-12-12T01:51:33.730Z,24.67
2018-12-12T01:54:01.788Z,22.07
2018-12-12T01:56:29.962Z,25.77
2018-12-12T01:58:58.031Z,27.37
2018-12-12T02:01:26.104Z,30.83
2018-12-12T02:03:54.217Z,24.90
2018-12-12T02:06:22.288Z,24.67
2018-12-12T02:08:50.461Z,25.57
2018-12-12T02:11:18.522Z,24.60
2018-12-12T02:13:46.582Z,26.83
2018-12-12T02:16:14.877Z,21.43
2018-12-12T02:18:43.572Z,27.75
2018-12-12T02:21:11.885Z,27.60
2018-12-12T02:23:39.971Z,23.70
2018-12-12T02:26:08.080Z,25.90
2018-12-12T02:28:36.191Z,24.43
2018-12-12T02:31:04.387Z,22.33
2018-12-12T02:33:32.599Z,23.37
2018-12-12T02:36:00.690Z,28.50
2018-12-12T02:38:28.787Z,24.90
2018-12-12T02:40:57.366Z,33.70
2018-12-12T02:43:25.511Z,22.22
2018-12-12T02:45:53.574Z,24.53
2018-12-12T02:48:21.666Z,22.40
2018-12-12T02:50:50.851Z,28.23
2018-12-12T02:53:18.911Z,23.80
2018-12-12T02:55:46.982Z,22.87
2018-12-12T02:58:15.052Z,25.33
2018-12-12T03:00:43.121Z,25.33
2018-12-12T03:03:11.410Z,24.27
2018-12-12T03:05:39.596Z,20.03
2018-12-12T03:08:07.740Z,26.17
2018-12-12T03:10:35.888Z,20.57
2018-12-12T03:13:04.015Z,23.27
2018-12-12T03:15:32.271Z,24.77
2018-12-12T03:18:00.338Z,29.13
2018-12-12T03:20:28.396Z,21.53
2018-12-12T03:22:56.539Z,25.93
2018-12-12T03:25:24.656Z,23.77
2018-12-12T03:27:52.716Z,28.60
2018-12-12T03:30:20.786Z,30.87
2018-12-12T03:32:48.931Z,27.83
2018-12-12T03:35:17.046Z,26.10
2018-12-12T03:37:45.120Z,24.87
2018-12-12T03:40:13.769Z,25.12
2018-12-12T03:42:42.187Z,28.77
2018-12-12T03:45:10.356Z,29.17
2018-12-12T03:47:38.508Z,35.80
2018-12-12T03:50:06.829Z,31.10
2018-12-12T03:52:35.048Z,28.83
2018-12-12T03:55:05.605Z,27.40
2018-12-12T03:57:33.818Z,29.70
2018-12-12T04:00:01.975Z,26.87
2018-12-12T04:02:30.117Z,28.77
2018-12-12T04:04:58.173Z,30.80
2018-12-12T04:07:26.266Z,34.97
2018-12-12T04:09:54.358Z,34.20
2018-12-12T04:12:22.512Z,27.83
2018-12-12T04:14:50.571Z,29.27
2018-12-12T04:17:18.622Z,32.93
2018-12-12T04:19:46.783Z,28.00
2018-12-12T04:22:16.659Z,28.82
2018-12-12T04:24:44.956Z,30.03
2018-12-12T04:27:13.016Z,30.80
2018-12-12T04:29:41.086Z,31.50
2018-12-12T04:32:09.251Z,24.57
2018-12-12T04:34:37.438Z,32.90
2018-12-12T04:37:05.606Z,35.07
2018-12-12T04:39:33.662Z,28.93
2018-12-12T04:42:01.723Z,33.97
2018-12-12T04:44:29.822Z,33.18
2018-12-12T04:46:57.908Z,31.73
2018-12-12T04:49:25.971Z,30.90
2018-12-12T04:51:54.025Z,31.90
2018-12-12T04:54:22.091Z,33.23
2018-12-12T04:56:50.170Z,30.07
2018-12-12T04:59:18.482Z,29.20
2018-12-12T05:01:46.538Z,30.07
2018-12-12T05:04:14.630Z,32.70
2018-12-12T05:06:42.728Z,28.40
2018-12-12T05:09:10.846Z,32.97
2018-12-12T05:11:38.914Z,27.27
2018-12-12T05:14:06.981Z,30.60
2018-12-12T05:16:35.945Z,34.53
2018-12-12T05:19:04.056Z,32.87
2018-12-12T05:21:32.191Z,39.17
2018-12-12T05:24:00.278Z,37.28
2018-12-12T05:26:28.395Z,33.07
2018-12-12T05:28:56.574Z,33.97
2018-12-12T05:31:24.724Z,32.60
2018-12-12T05:33:52.786Z,35.90
2018-12-12T05:36:20.851Z,35.73
2018-12-12T05:38:48.902Z,35.93
2018-12-12T05:41:16.999Z,34.10
2018-12-12T05:43:45.171Z,35.40
2018-12-12T05:46:13.234Z,43.80
2018-12-12T05:48:41.346Z,39.17
2018-12-12T05:51:09.447Z,34.33
2018-12-12T05:53:37.602Z,35.97
2018-12-12T05:56:05.726Z,30.87
2018-12-12T05:58:33.799Z,30.08
2018-12-12T06:01:01.878Z,36.60
2018-12-12T06:03:30.035Z,36.67
2018-12-12T06:05:58.136Z,37.90
2018-12-12T06:08:26.227Z,38.53
2018-12-12T06:10:54.294Z,34.30
2018-12-12T06:13:22.350Z,33.33
2018-12-12T06:15:50.410Z,33.80
2018-12-12T06:18:18.582Z,42.77
2018-12-12T06:20:46.654Z,35.20
2018-12-12T06:23:14.746Z,34.43
2018-12-12T06:25:42.951Z,33.73
2018-12-12T06:28:11.011Z,24.67
2018-12-12T06:30:39.079Z,34.90
2018-12-12T06:33:07.166Z,36.03
2018-12-12T06:35:35.276Z,31.57
2018-12-12T06:38:03.369Z,31.55
2018-12-12T06:40:31.509Z,29.77
2018-12-12T06:42:59.586Z,33.33
2018-12-12T06:45:27.642Z,31.50
2018-12-12T06:47:56.730Z,27.72
2018-12-12T06:50:24.818Z,30.00
2018-12-12T06:52:52.875Z,33.50
2018-12-12T06:55:20.969Z,40.83
2018-12-12T06:57:49.039Z,33.13
2018-12-12T07:00:17.209Z,32.57
2018-12-12T07:02:45.266Z,30.17
2018-12-12T07:05:13.334Z,30.47
2018-12-12T07:07:41.522Z,33.53
2018-12-12T07:10:09.658Z,30.40
2018-12-12T07:12:37.747Z,30.17
2018-12-12T07:15:05.863Z,31.30
2018-12-12T07:17:33.968Z,31.97
2018-12-12T07:20:02.062Z,27.23
2018-12-12T07:22:31.354Z,33.90
2018-12-12T07:24:59.452Z,33.77
2018-12-12T07:27:27.656Z,35.23
2018-12-12T07:29:55.722Z,36.90
2018-12-12T07:32:26.164Z,34.77
2018-12-12T07:34:53.902Z,35.87
2018-12-12T07:37:22.009Z,33.13
2018-12-12T07:39:50.106Z,32.87
2018-12-12T07:42:18.218Z,33.80
2018-12-12T07:44:46.319Z,36.83
2018-12-12T07:47:14.463Z,38.10
2018-12-12T07:49:42.654Z,31.70
2018-12-12T07:52:12.239Z,33.67
2018-12-12T07:54:40.590Z,31.50
2018-12-12T07:57:08.646Z,36.97
2018-12-12T07:59:36.710Z,29.67
2018-12-12T08:02:04.951Z,38.87
2018-12-12T08:04:33.058Z,36.63
2018-12-12T08:07:01.154Z,37.80
2018-12-12T08:09:29.256Z,36.77
2018-12-12T08:11:57.418Z,32.13
2018-12-12T08:14:25.487Z,36.07
2018-12-12T08:16:53.551Z,40.80
2018-12-12T08:19:21.610Z,35.87
2018-12-12T08:21:49.706Z,40.10
2018-12-12T08:24:17.779Z,30.87
2018-12-12T08:26:45.891Z,36.28
2018-12-12T08:29:13.963Z,35.97
2018-12-12T08:31:42.024Z,34.90
2018-12-12T08:34:10.133Z,38.97
2018-12-12T08:36:38.203Z,38.93
2018-12-12T08:39:07.211Z,40.67
2018-12-12T08:41:35.315Z,57.97
2018-12-12T08:44:03.508Z,39.63
2018-12-12T08:46:31.620Z,43.70
2018-12-12T08:48:59.755Z,38.53
2018-12-12T08:51:27.832Z,37.40
2018-12-12T08:53:55.907Z,38.40
2018-12-12T08:56:23.984Z,38.57
2018-12-12T08:58:52.037Z,39.40
2018-12-12T09:01:20.112Z,38.33
2018-12-12T09:03:48.296Z,36.40
2018-12-12T09:06:16.369Z,45.07
2018-12-12T09:08:44.418Z,38.83
2018-12-12T09:11:12.522Z,40.07
2018-12-12T09:13:40.575Z,45.40
2018-12-12T09:16:08.663Z,48.63
2018-12-12T09:18:36.704Z,58.28
2018-12-12T09:21:04.766Z,45.03
2018-12-12T09:23:33.999Z,45.80
2018-12-12T09:26:02.074Z,45.28
2018-12-12T09:28:30.138Z,55.33
2018-12-12T09:30:58.204Z,46.83
2018-12-12T09:33:26.364Z,50.63
2018-12-12T09:35:54.508Z,43.43
2018-12-12T09:38:22.573Z,49.95
2018-12-12T09:40:50.914Z,52.57
2018-12-12T09:43:18.984Z,52.93
2018-12-12T09:45:47.047Z,52.85
2018-12-12T09:48:19.285Z,55.57
2018-12-12T09:50:45.232Z,47.37
2018-12-12T09:53:13.299Z,51.63
2018-12-12T09:55:41.389Z,51.50
2018-12-12T09:58:10.993Z,48.87
2018-12-12T10:00:39.071Z,47.00
2018-12-12T10:03:07.132Z,58.40
2018-12-12T10:05:35.196Z,62.80
2018-12-12T10:08:03.383Z,57.77
2018-12-12T10:10:31.465Z,56.33
2018-12-12T10:12:59.514Z,64.17
2018-12-12T10:15:27.618Z,63.33
2018-12-12T10:17:55.674Z,51.77
2018-12-12T10:20:23.763Z,149.05
2018-12-12T10:22:52.971Z,101.58
2018-12-12T10:25:21.035Z,114.87
2018-12-12T10:27:49.211Z,107.83
2018-12-12T10:30:17.301Z,175.83
2018-12-12T10:32:45.406Z,177.97
2018-12-12T10:35:14.568Z,182.47
2018-12-12T10:37:42.911Z,176.18
2018-12-12T10:40:10.986Z,92.83
2018-12-12T10:42:39.134Z,151.97
2018-12-12T10:45:07.295Z,61.13
2018-12-12T10:47:35.361Z,74.17
2018-12-12T10:50:05.422Z,57.47
2018-12-12T10:52:33.480Z,59.57
2018-12-12T10:55:01.770Z,62.10
2018-12-12T10:57:29.868Z,63.37
2018-12-12T10:59:57.935Z,62.90
2018-12-12T11:02:30.285Z,64.03
2018-12-12T11:04:58.638Z,64.17
2018-12-12T11:07:26.826Z,63.87
2018-12-12T11:09:54.884Z,60.15
2018-12-12T11:12:23.001Z,68.20
2018-12-12T11:14:52.028Z,68.92
2018-12-12T11:17:20.246Z,66.23
2018-12-12T11:19:48.334Z,68.17
2018-12-12T11:22:16.415Z,72.03
2018-12-12T11:24:45.180Z,70.70
2018-12-12T11:27:13.461Z,62.87
2018-12-12T11:29:41.550Z,62.33
2018-12-12T11:32:09.647Z,65.37
2018-12-12T11:34:37.845Z,80.73
2018-12-12T11:37:05.939Z,67.73
2018-12-12T11:39:34.095Z,64.67
2018-12-12T11:42:02.178Z,62.83
2018-12-12T11:44:30.225Z,64.53
2018-12-12T11:46:58.311Z,67.63
2018-12-12T11:49:26.435Z,66.13
2018-12-12T11:51:54.517Z,54.50
2018-12-12T11:54:22.706Z,61.48
2018-12-12T11:56:50.764Z,58.70
2018-12-12T11:59:18.847Z,63.07
2018-12-12T12:01:46.964Z,60.03
2018-12-12T12:04:15.038Z,68.87
2018-12-12T12:06:43.103Z,66.63
2018-12-12T12:09:11.162Z,60.50
2018-12-12T12:11:39.373Z,54.08
2018-12-12T12:14:07.462Z,54.93
2018-12-12T12:16:35.600Z,45.95
2018-12-12T12:19:03.735Z,45.47
2018-12-12T12:21:31.846Z,51.13
2018-12-12T12:23:59.951Z,50.90
2018-12-12T12:26:28.139Z,55.10
2018-12-12T12:28:56.541Z,65.37
2018-12-12T12:31:24.967Z,48.93
2018-12-12T12:33:53.297Z,57.15
2018-12-12T12:36:21.440Z,48.76
2018-12-12T12:38:49.511Z,42.67
2018-12-12T12:41:17.566Z,42.93
2018-12-12T12:43:45.976Z,37.33
2018-12-12T12:46:14.054Z,35.43
2018-12-12T12:48:42.124Z,32.00
2018-12-12T12:51:10.187Z,25.30
2018-12-12T12:53:38.306Z,25.83
2018-12-12T12:56:06.458Z,24.33
2018-12-12T12:58:34.530Z,28.07
2018-12-12T13:01:02.602Z,34.27
2018-12-12T13:03:30.683Z,28.90
2018-12-12T13:05:58.742Z,32.93
2018-12-12T13:08:26.811Z,26.67
2018-12-12T13:10:56.003Z,22.38
2018-12-12T13:13:24.316Z,23.13
2018-12-12T13:15:52.516Z,26.42
2018-12-12T13:18:20.604Z,19.57
2018-12-12T13:20:48.766Z,22.10
2018-12-12T13:23:16.840Z,26.05
2018-12-12T13:25:44.951Z,25.70
2018-12-12T13:30:51.767Z,26.90
2018-12-12T13:33:19.836Z,26.93
2018-12-12T13:35:47.931Z,15.93
2018-12-12T13:38:16.018Z,25.93
2018-12-12T13:40:44.163Z,20.17
2018-12-12T13:43:12.226Z,36.83
2018-12-12T13:45:40.295Z,18.80
2018-12-12T13:48:08.422Z,28.67
2018-12-12T13:50:36.507Z,23.60
2018-12-12T13:53:04.626Z,23.90
2018-12-12T13:55:32.702Z,27.70
2018-12-12T13:58:00.786Z,19.33
2018-12-12T14:00:28.948Z,19.47
2018-12-12T14:02:57.031Z,19.60
2018-12-12T14:05:25.183Z,21.67
2018-12-12T14:07:53.278Z,22.98
2018-12-12T14:10:21.330Z,23.17
2018-12-12T14:12:49.398Z,19.27
2018-12-12T14:15:17.482Z,20.60
2018-12-12T14:17:45.786Z,21.57
2018-12-12T14:20:14.506Z,13.20
2018-12-12T14:22:42.573Z,17.30
2018-12-12T14:25:10.626Z,10.77
2018-12-12T14:27:55.191Z,13.10
2018-12-12T14:30:23.272Z,11.20
2018-12-12T14:32:51.370Z,19.50
2018-12-12T14:35:19.448Z,14.13
2018-12-12T14:37:48.354Z,13.13
2018-12-12T14:40:16.430Z,14.83
2018-12-12T14:42:45.628Z,15.93
2018-12-12T14:45:13.789Z,12.97
2018-12-12T14:47:41.895Z,14.67
2018-12-12T14:50:09.998Z,16.17
2018-12-12T14:52:39.289Z,17.50
2018-12-12T14:55:07.485Z,17.90
2018-12-12T14:57:35.648Z,11.97
2018-12-12T15:00:05.648Z,14.20
2018-12-12T15:02:33.768Z,13.13
2018-12-12T15:05:02.030Z,17.17
2018-12-12T15:07:30.089Z,28.23
2018-12-12T15:09:58.218Z,11.13
2018-12-12T15:12:26.301Z,23.18
2018-12-12T15:14:54.394Z,11.80
2018-12-12T15:17:22.467Z,16.93
2018-12-12T15:19:50.576Z,18.10
2018-12-12T15:22:18.853Z,16.23
2018-12-12T15:24:48.099Z,14.93
2018-12-12T15:27:17.357Z,8.33
2018-12-12T15:29:45.460Z,6.97
2018-12-12T15:32:13.525Z,17.73
2018-12-12T15:34:42.402Z,13.53
2018-12-12T15:37:10.748Z,14.00
2018-12-12T15:39:38.824Z,14.65
2018-12-12T15:42:07.954Z,15.47
2018-12-12T15:44:36.043Z,17.00
2018-12-12T15:47:04.141Z,16.20
2018-12-12T15:49:32.221Z,16.17
2018-12-12T15:52:01.595Z,13.20
2018-12-12T15:54:29.692Z,24.27
2018-12-12T15:56:59.816Z,16.20
2018-12-12T15:59:28.058Z,18.73
2018-12-12T16:01:56.153Z,14.27
2018-12-12T16:04:27.112Z,10.20
2018-12-12T16:06:55.214Z,8.63
2018-12-12T16:09:23.786Z,10.45
2018-12-12T16:11:52.016Z,8.03
2018-12-12T16:14:21.000Z,9.18
2018-12-12T16:16:49.925Z,10.27
2018-12-12T16:19:19.002Z,18.30
2018-12-12T16:21:47.084Z,11.03
2018-12-12T16:24:15.977Z,13.67
2018-12-12T16:26:44.056Z,14.00
2018-12-12T16:29:12.221Z,11.50
2018-12-12T16:31:40.310Z,18.23
2018-12-12T16:34:09.388Z,15.67
2018-12-12T16:36:37.504Z,16.50
2018-12-12T16:39:07.826Z,11.83
2018-12-12T16:41:36.015Z,17.48
2018-12-12T16:44:04.953Z,14.90
2018-12-12T16:46:33.034Z,15.73
2018-12-12T16:49:01.103Z,14.93
2018-12-12T16:51:29.191Z,11.93
2018-12-12T16:53:58.489Z,15.90
2018-12-12T16:56:26.758Z,13.60
2018-12-12T16:58:54.852Z,15.78
2018-12-12T17:01:23.003Z,15.30
2018-12-12T17:03:51.082Z,13.20
2018-12-12T17:06:19.232Z,23.23
2018-12-12T17:08:47.900Z,15.47
2018-12-12T17:11:16.113Z,23.73
2018-12-12T17:13:44.168Z,24.30
2018-12-12T17:16:12.554Z,18.12
2018-12-12T17:18:40.697Z,16.23
2018-12-12T17:21:10.472Z,21.97
2018-12-12T17:23:38.549Z,15.43
2018-12-12T17:29:30.496Z,63.57
2018-12-12T17:31:58.563Z,28.67
2018-12-12T17:34:26.830Z,21.03
2018-12-12T17:36:54.899Z,14.43
2018-12-12T17:39:22.978Z,15.58
2018-12-12T17:41:52.182Z,19.70
2018-12-12T17:44:20.290Z,15.90
2018-12-12T17:46:48.355Z,14.65
2018-12-12T17:49:16.418Z,15.07
2018-12-12T17:54:21.811Z,16.93
2018-12-12T17:56:49.866Z,16.57
2018-12-12T17:59:17.972Z,16.75
2018-12-12T18:01:46.176Z,17.13
2018-12-12T18:04:14.217Z,14.90
2018-12-12T18:06:42.283Z,17.90
2018-12-12T18:09:10.466Z,13.93
2018-12-12T18:11:38.562Z,20.60
2018-12-12T18:14:06.647Z,23.87
2018-12-12T18:16:34.715Z,20.27
2018-12-12T18:19:02.780Z,17.37
2018-12-12T18:21:32.437Z,21.57
2018-12-12T18:24:00.531Z,21.07
2018-12-12T18:26:28.629Z,15.63
2018-12-12T18:28:56.705Z,17.37
2018-12-12T18:31:24.766Z,17.62
2018-12-12T18:33:52.951Z,16.33
2018-12-12T18:36:21.085Z,14.60
2018-12-12T18:38:49.139Z,14.17
2018-12-12T18:41:17.214Z,16.50
2018-12-12T18:43:45.294Z,16.00
2018-12-12T18:46:13.435Z,15.63
2018-12-12T18:48:41.525Z,17.93
2018-12-12T18:51:10.722Z,12.53
2018-12-12T18:53:38.838Z,17.03
2018-12-12T18:56:07.046Z,14.43
2018-12-12T18:58:35.194Z,14.47
2018-12-12T19:01:03.230Z,14.03
2018-12-12T19:03:31.301Z,15.37
2018-12-12T19:05:59.452Z,15.30
2018-12-12T19:08:27.577Z,14.50
2018-12-12T19:10:55.614Z,17.13
2018-12-12T19:13:23.686Z,11.95
2018-12-12T19:15:51.784Z,13.90
2018-12-12T19:18:19.852Z,14.30
2018-12-12T19:20:47.922Z,14.40
2018-12-12T19:23:16.026Z,16.80
2018-12-12T19:25:44.138Z,19.97
2018-12-12T19:28:12.425Z,13.17
2018-12-12T19:30:41.465Z,15.93
2018-12-12T19:33:09.653Z,14.30
2018-12-12T19:35:37.816Z,17.60
2018-12-12T19:38:05.967Z,19.23
2018-12-12T19:40:34.122Z,15.10
2018-12-12T19:43:02.225Z,15.00
2018-12-12T19:45:30.489Z,17.87
2018-12-12T19:47:58.547Z,12.80
2018-12-12T19:50:26.643Z,12.55
2018-12-12T19:52:54.707Z,11.57
2018-12-12T19:55:22.799Z,12.97
2018-12-12T19:57:50.972Z,12.70
2018-12-12T20:00:19.056Z,14.00
2018-12-12T20:02:47.199Z,12.73
2018-12-12T20:05:15.331Z,14.93
2018-12-12T20:07:43.427Z,12.40
2018-12-12T20:10:11.516Z,11.83
2018-12-12T20:12:39.648Z,14.40
2018-12-12T20:15:09.801Z,11.43
2018-12-12T20:17:37.903Z,15.60
2018-12-12T20:20:06.052Z,12.63
2018-12-12T20:22:34.114Z,15.40
2018-12-12T20:25:02.178Z,16.33
2018-12-12T20:27:30.316Z,13.50
2018-12-12T20:29:58.367Z,11.55
2018-12-12T20:32:26.455Z,12.17
2018-12-12T20:34:54.590Z,17.87
2018-12-12T20:37:22.666Z,16.02
2018-12-12T20:39:50.819Z,18.43
2018-12-12T20:42:18.957Z,16.97
2018-12-12T20:44:47.454Z,17.27
2018-12-12T20:47:15.554Z,16.63
2018-12-12T20:49:43.611Z,17.57
2018-12-12T20:52:11.692Z,17.17
2018-12-12T20:54:39.862Z,17.53
2018-12-12T20:57:07.984Z,19.50
2018-12-12T20:59:36.178Z,18.80
2018-12-12T21:02:05.569Z,18.37
2018-12-12T21:04:33.773Z,19.52
2018-12-12T21:07:01.860Z,17.33
2018-12-12T21:09:30.007Z,18.00
2018-12-12T21:11:58.156Z,14.80
2018-12-12T21:14:26.218Z,17.80
2018-12-12T21:16:54.290Z,13.57
2018-12-12T21:19:22.345Z,14.43
2018-12-12T21:21:50.961Z,18.12
2018-12-12T21:24:19.020Z,22.20
2018-12-12T21:26:47.111Z,16.80
2018-12-12T21:29:15.200Z,18.83
2018-12-12T21:31:43.418Z,15.70
2018-12-12T21:34:11.555Z,16.85
2018-12-12T21:36:39.683Z,16.17
2018-12-12T21:39:07.798Z,12.57
2018-12-12T21:41:36.005Z,14.25
2018-12-12T21:44:04.121Z,15.53
2018-12-12T21:46:33.122Z,14.87
2018-12-12T21:49:01.183Z,18.23
2018-12-12T21:51:29.290Z,16.12
2018-12-12T21:53:57.422Z,14.60
2018-12-12T21:56:25.503Z,16.93
2018-12-12T21:58:53.603Z,15.80
2018-12-12T22:01:21.775Z,17.27
2018-12-12T22:03:50.981Z,14.03
2018-12-12T22:06:19.035Z,13.33
2018-12-12T22:08:47.094Z,15.27
2018-12-12T22:11:15.182Z,13.20
2018-12-12T22:13:43.336Z,13.70
2018-12-12T22:16:11.494Z,14.17
2018-12-12T22:18:39.550Z,14.30
2018-12-12T22:21:07.616Z,13.57
2018-12-12T22:23:35.678Z,15.70
2018-12-12T22:26:03.910Z,18.23
2018-12-12T22:28:31.987Z,16.27
2018-12-12T22:31:00.035Z,17.90
2018-12-12T22:33:28.268Z,13.50
2018-12-12T22:35:56.318Z,12.82
2018-12-12T22:38:24.406Z,14.57
2018-12-12T22:40:52.484Z,15.93
2018-12-12T22:43:20.591Z,14.87
2018-12-12T22:45:48.691Z,14.83
2018-12-12T22:48:20.530Z,12.93
2018-12-12T22:50:46.807Z,12.43
2018-12-12T22:53:14.903Z,10.87
2018-12-12T22:55:43.083Z,12.40
2018-12-12T22:58:11.136Z,13.23
2018-12-12T23:00:42.718Z,12.50
2018-12-12T23:03:10.787Z,10.63
2018-12-12T23:05:39.052Z,10.53
2018-12-12T23:08:07.091Z,10.93
2018-12-12T23:10:35.142Z,11.37
2018-12-12T23:13:03.250Z,14.37
2018-12-12T23:15:31.304Z,12.23
2018-12-12T23:17:59.368Z,11.75
2018-12-12T23:20:27.517Z,9.80
2018-12-12T23:22:56.035Z,9.67
2018-12-12T23:25:24.091Z,10.82
2018-12-12T23:27:52.261Z,10.07
2018-12-12T23:30:20.339Z,14.20
2018-12-12T23:32:48.428Z,12.73
2018-12-12T23:35:16.543Z,10.30
2018-12-12T23:37:44.615Z,10.07
2018-12-12T23:40:12.682Z,10.00
2018-12-12T23:42:40.816Z,10.07
2018-12-12T23:45:08.922Z,11.57
2018-12-12T23:47:36.992Z,10.13
2018-12-12T23:50:05.806Z,10.40
2018-12-12T23:52:34.075Z,9.35
2018-12-12T23:55:02.167Z,11.60
2018-12-12T23:57:30.231Z,9.70
2018-12-12T23:59:58.296Z,9.90
